Horinsk, Russia
Current Conditions -  °F | °C
As of 10:30 PM on Tuesday 27 Jan 2015 (Local Time) from UIUU Reporting Station
Haze Haze  
Wind Chill: -24°   Ceiling: Unl
Heat Index: -24°   Visibility: 3mi
Dew Point: -29°   Wind: 0mph
Humidity: 76%   Direction: NA
Pressure: 30.42"   Gusts: NA
Location:  52.17°N, 109.77°E
Report Text: UIUU 271430Z 00000MPS 5000 BR SKC M31/M34 Q1030 NOSIG RMKQFE728/0970 26822050
Loading
Personal Weather Stations






























Interactive Weather Map New forecast layout! Learn more

10-Day Weather Forecast

Advertisements
Track Severe Weather on mobile